Time,TemperatureF,DewpointF,PressureIn,WindDirection,WindDirectionDegrees,WindSpeedMPH,WindSpeedGustMPH,Humidity,HourlyPrecipIn,Conditions,Clouds,dailyrainin,SolarRadiationWatts/m^2,SoftwareType,DateUTC
2013-10-15 00:07:00,67.4,64.0,30.05,SE,139,0.0,0.0,87,0.00,,,0.00,0,weatherlink.com 1.10,2013-10-15 05:07:00,
2013-10-15 00:22:00,67.6,63.0,30.04,SE,139,0.0,1.0,86,0.00,,,0.00,0,weatherlink.com 1.10,2013-10-15 05:22:00,
2013-10-15 00:37:00,67.7,63.0,30.04,SE,139,0.0,1.0,86,0.00,,,0.00,0,weatherlink.com 1.10,2013-10-15 05:37:00,
2013-10-15 00:52:00,67.9,64.0,30.03,SE,139,1.0,2.0,86,0.00,,,0.00,0,weatherlink.com 1.10,2013-10-15 05:52:00,
2013-10-15 01:07:00,68.3,64.0,30.02,SE,131,2.0,5.0,85,0.00,,,0.00,0,weatherlink.com 1.10,2013-10-15 06:07:00,
2013-10-15 01:22:00,68.7,64.0,30.02,SE,142,1.0,4.0,84,0.00,,,0.00,0,weatherlink.com 1.10,2013-10-15 06:22:00,
2013-10-15 01:37:00,68.7,63.0,30.02,SE,130,4.0,4.0,83,0.00,,,0.00,0,weatherlink.com 1.10,2013-10-15 06:37:00,
2013-10-15 01:52:00,68.7,63.0,30.02,SSE,161,1.0,4.0,83,0.00,,,0.00,0,weatherlink.com 1.10,2013-10-15 06:52:00,
2013-10-15 02:07:00,68.4,63.0,30.02,SE,145,1.0,4.0,84,0.00,,,0.00,0,weatherlink.com 1.10,2013-10-15 07:07:00,
2013-10-15 02:22:00,68.2,64.0,30.01,SSE,149,1.0,3.0,85,0.00,,,0.00,0,weatherlink.com 1.10,2013-10-15 07:22:00,
2013-10-15 02:37:00,68.2,64.0,30.00,SSE,168,2.0,6.0,85,0.00,,,0.00,0,weatherlink.com 1.10,2013-10-15 07:37:00,
2013-10-15 02:52:00,68.2,64.0,30.00,SE,126,1.0,6.0,85,0.00,,,0.00,0,weatherlink.com 1.10,2013-10-15 07:52:00,
2013-10-15 03:07:00,68.2,64.0,30.00,SSE,166,3.0,5.0,85,0.00,,,0.00,0,weatherlink.com 1.10,2013-10-15 08:07:00,
2013-10-15 03:22:00,68.1,64.0,30.00,SE,134,1.0,4.0,85,0.00,,,0.00,0,weatherlink.com 1.10,2013-10-15 08:22:00,
2013-10-15 03:37:00,67.9,63.0,30.00,SE,135,2.0,4.0,85,0.00,,,0.00,0,weatherlink.com 1.10,2013-10-15 08:37:00,
2013-10-15 03:52:00,67.8,64.0,30.00,SE,135,3.0,3.0,86,0.00,,,0.00,0,weatherlink.com 1.10,2013-10-15 08:52:00,
2013-10-15 04:07:00,67.7,63.0,30.01,SE,135,1.0,3.0,86,0.00,,,0.00,0,weatherlink.com 1.10,2013-10-15 09:07:00,
2013-10-15 04:22:00,67.7,63.0,30.01,SE,145,3.0,4.0,86,0.00,,,0.00,0,weatherlink.com 1.10,2013-10-15 09:22:00,
2013-10-15 04:37:00,67.7,63.0,30.00,South,178,4.0,7.0,86,0.00,,,0.00,0,weatherlink.com 1.10,2013-10-15 09:37:00,
2013-10-15 04:52:00,67.7,63.0,30.00,SSE,158,6.0,6.0,86,0.00,,,0.00,0,weatherlink.com 1.10,2013-10-15 09:52:00,
2013-10-15 05:07:00,67.8,63.0,30.00,SE,133,4.0,7.0,85,0.00,,,0.00,0,weatherlink.com 1.10,2013-10-15 10:07:00,
2013-10-15 05:22:00,67.8,63.0,30.00,South,174,5.0,6.0,85,0.00,,,0.00,0,weatherlink.com 1.10,2013-10-15 10:22:00,
2013-10-15 05:38:00,67.9,63.0,30.01,SSE,158,9.0,9.0,85,0.00,,,0.00,0,weatherlink.com 1.10,2013-10-15 10:38:00,
2013-10-15 05:53:00,68.0,63.0,30.00,South,170,4.0,8.0,85,0.00,,,0.00,0,weatherlink.com 1.10,2013-10-15 10:53:00,
2013-10-15 06:08:00,67.8,63.0,30.00,South,172,3.0,7.0,84,0.00,,,0.00,0,weatherlink.com 1.10,2013-10-15 11:08:00,
2013-10-15 06:23:00,68.0,63.0,30.01,SE,145,2.0,10.0,84,0.00,,,0.00,0,weatherlink.com 1.10,2013-10-15 11:23:00,
2013-10-15 06:40:00,68.0,63.0,30.01,SSE,160,5.0,8.0,84,0.00,,,0.00,0,weatherlink.com 1.10,2013-10-15 11:40:00,
2013-10-15 06:54:00,67.8,63.0,30.00,South,172,4.0,7.0,84,0.00,,,0.00,0,weatherlink.com 1.10,2013-10-15 11:54:00,
2013-10-15 07:10:00,67.8,63.0,30.01,SSE,160,4.0,9.0,84,0.00,,,0.00,0,weatherlink.com 1.10,2013-10-15 12:10:00,
2013-10-15 07:25:00,67.7,63.0,30.01,SSE,159,4.0,9.0,84,0.00,,,0.00,12,weatherlink.com 1.10,2013-10-15 12:25:00,
2013-10-15 07:40:00,67.7,63.0,30.01,SSE,156,5.0,10.0,84,0.00,,,0.00,19,weatherlink.com 1.10,2013-10-15 12:40:00,
2013-10-15 07:55:00,67.7,63.0,30.02,SSE,162,5.0,7.0,85,0.00,,,0.00,28,weatherlink.com 1.10,2013-10-15 12:55:00,
2013-10-15 08:10:00,67.7,63.0,30.02,SSE,150,2.0,9.0,85,0.00,,,0.00,47,weatherlink.com 1.10,2013-10-15 13:10:00,
2013-10-15 08:25:00,67.7,63.0,30.02,SSE,147,3.0,8.0,85,0.00,,,0.00,70,weatherlink.com 1.10,2013-10-15 13:25:00,
2013-10-15 08:41:00,67.9,63.0,30.03,SSE,161,3.0,7.0,85,0.00,,,0.00,76,weatherlink.com 1.10,2013-10-15 13:41:00,
2013-10-15 08:56:00,68.1,64.0,30.03,SSE,156,2.0,9.0,85,0.00,,,0.00,76,weatherlink.com 1.10,2013-10-15 13:56:00,
2013-10-15 09:11:00,68.3,63.0,30.03,South,191,4.0,8.0,84,0.00,,,0.00,83,weatherlink.com 1.10,2013-10-15 14:11:00,
2013-10-15 09:26:00,68.5,64.0,30.03,SSE,156,4.0,10.0,84,0.00,,,0.00,60,weatherlink.com 1.10,2013-10-15 14:26:00,
2013-10-15 09:41:00,68.8,64.0,30.02,SE,135,3.0,7.0,84,0.00,,,0.00,172,weatherlink.com 1.10,2013-10-15 14:41:00,
2013-10-15 09:56:00,69.3,64.0,30.02,SE,137,5.0,10.0,82,0.00,,,0.00,105,weatherlink.com 1.10,2013-10-15 14:56:00,
2013-10-15 10:11:00,69.7,64.0,30.02,SSE,147,9.0,10.0,81,0.00,,,0.00,188,weatherlink.com 1.10,2013-10-15 15:11:00,
2013-10-15 10:26:00,70.4,64.0,30.01,SSE,147,6.0,11.0,80,0.00,,,0.00,204,weatherlink.com 1.10,2013-10-15 15:26:00,
2013-10-15 10:41:00,70.7,64.0,30.02,SSE,159,12.0,12.0,78,0.00,,,0.00,114,weatherlink.com 1.10,2013-10-15 15:41:00,
2013-10-15 10:56:00,71.1,64.0,30.01,South,185,10.0,11.0,79,0.00,,,0.00,253,weatherlink.com 1.10,2013-10-15 15:56:00,
2013-10-15 11:11:00,71.7,64.0,30.01,SSE,168,6.0,11.0,77,0.00,,,0.00,239,weatherlink.com 1.10,2013-10-15 16:11:00,
2013-10-15 11:26:00,71.7,64.0,30.00,SSE,164,6.0,13.0,77,0.00,,,0.00,214,weatherlink.com 1.10,2013-10-15 16:26:00,
2013-10-15 11:41:00,71.8,64.0,30.00,SSE,155,5.0,13.0,77,0.00,,,0.00,185,weatherlink.com 1.10,2013-10-15 16:41:00,
2013-10-15 11:56:00,71.8,64.0,30.00,South,172,4.0,10.0,77,0.00,,,0.00,155,weatherlink.com 1.10,2013-10-15 16:56:00,
2013-10-15 12:11:00,72.0,65.0,29.99,South,182,3.0,10.0,78,0.00,,,0.00,162,weatherlink.com 1.10,2013-10-15 17:11:00,
2013-10-15 12:26:00,72.0,64.0,29.99,SE,141,2.0,9.0,77,0.00,,,0.00,169,weatherlink.com 1.10,2013-10-15 17:26:00,
2013-10-15 12:41:00,71.9,65.0,29.99,SSE,149,4.0,9.0,78,0.00,,,0.00,125,weatherlink.com 1.10,2013-10-15 17:41:00,
2013-10-15 12:57:00,71.9,65.0,29.98,South,172,3.0,7.0,78,0.00,,,0.00,113,weatherlink.com 1.10,2013-10-15 17:57:00,
2013-10-15 13:12:00,71.9,65.0,29.98,SE,135,3.0,9.0,78,0.00,,,0.00,155,weatherlink.com 1.10,2013-10-15 18:12:00,
2013-10-15 13:26:00,72.0,65.0,29.97,SSE,168,5.0,8.0,79,0.00,,,0.00,149,weatherlink.com 1.10,2013-10-15 18:26:00,
2013-10-15 13:42:00,71.7,65.0,29.96,SSE,166,7.0,10.0,78,0.00,,,0.00,81,weatherlink.com 1.10,2013-10-15 18:42:00,
2013-10-15 13:58:00,71.3,65.0,29.95,SSE,159,6.0,10.0,79,0.00,,,0.00,65,weatherlink.com 1.10,2013-10-15 18:58:00,
2013-10-15 14:13:00,71.2,65.0,29.95,South,170,5.0,7.0,80,0.00,,,0.00,91,weatherlink.com 1.10,2013-10-15 19:13:00,
2013-10-15 14:28:00,71.2,65.0,29.95,SSE,147,5.0,8.0,80,0.00,,,0.00,88,weatherlink.com 1.10,2013-10-15 19:28:00,
2013-10-15 14:43:00,71.1,65.0,29.94,South,183,5.0,8.0,80,0.00,,,0.00,83,weatherlink.com 1.10,2013-10-15 19:43:00,
2013-10-15 14:59:00,71.0,65.0,29.94,SSE,155,5.0,9.0,80,0.00,,,0.00,67,weatherlink.com 1.10,2013-10-15 19:59:00,
2013-10-15 15:14:00,70.9,65.0,29.94,South,176,3.0,10.0,81,0.00,,,0.00,65,weatherlink.com 1.10,2013-10-15 20:14:00,
2013-10-15 15:29:00,70.9,65.0,29.94,South,172,3.0,6.0,81,0.00,,,0.00,69,weatherlink.com 1.10,2013-10-15 20:29:00,
2013-10-15 15:45:00,70.9,65.0,29.94,South,189,2.0,6.0,82,0.00,,,0.00,51,weatherlink.com 1.10,2013-10-15 20:45:00,
2013-10-15 16:00:00,70.8,65.0,29.94,SSE,162,1.0,3.0,82,0.00,,,0.00,33,weatherlink.com 1.10,2013-10-15 21:00:00,
2013-10-15 16:15:00,70.7,65.0,29.94,South,189,0.0,4.0,83,0.00,,,0.00,18,weatherlink.com 1.10,2013-10-15 21:15:00,
2013-10-15 16:30:00,70.5,65.0,29.94,SW,219,2.0,3.0,83,0.00,,,0.00,18,weatherlink.com 1.10,2013-10-15 21:30:00,
2013-10-15 16:45:00,70.5,65.0,29.94,SW,219,0.0,2.0,83,0.00,,,0.00,19,weatherlink.com 1.10,2013-10-15 21:45:00,
2013-10-15 17:00:00,70.5,66.0,29.94,SW,219,0.0,0.0,84,0.00,,,0.00,12,weatherlink.com 1.10,2013-10-15 22:00:00,
2013-10-15 17:15:00,70.3,66.0,29.94,SW,219,0.0,1.0,86,0.00,,,0.00,12,weatherlink.com 1.10,2013-10-15 22:15:00,
2013-10-15 17:46:00,69.3,66.0,29.95,SW,219,0.0,0.0,89,0.01,,,0.01,7,weatherlink.com 1.10,2013-10-15 22:46:00,
2013-10-15 18:02:00,68.8,66.0,29.95,SW,219,0.0,1.0,90,0.04,,,0.04,0,weatherlink.com 1.10,2013-10-15 23:02:00,
2013-10-15 18:16:00,68.5,66.0,29.96,SW,219,0.0,2.0,92,0.06,,,0.06,0,weatherlink.com 1.10,2013-10-15 23:16:00,
2013-10-15 18:31:00,68.1,66.0,29.96,West,278,0.0,2.0,93,0.09,,,0.09,0,weatherlink.com 1.10,2013-10-15 23:31:00,
2013-10-15 18:46:00,67.8,66.0,29.97,NE,35,2.0,4.0,93,0.13,,,0.14,0,weatherlink.com 1.10,2013-10-15 23:46:00,
2013-10-15 19:01:00,67.7,66.0,29.97,ENE,60,2.0,4.0,94,0.12,,,0.16,0,weatherlink.com 1.10,2013-10-16 00:01:00,
2013-10-15 19:16:00,67.5,66.0,29.98,ENE,60,0.0,5.0,94,0.12,,,0.18,0,weatherlink.com 1.10,2013-10-16 00:16:00,
2013-10-15 19:31:00,67.5,66.0,29.98,ENE,60,1.0,4.0,95,0.12,,,0.21,0,weatherlink.com 1.10,2013-10-16 00:31:00,
2013-10-15 19:46:00,67.3,66.0,29.98,SE,135,2.0,5.0,95,0.10,,,0.24,0,weatherlink.com 1.10,2013-10-16 00:46:00,
2013-10-15 20:02:00,67.2,66.0,29.98,SE,124,3.0,9.0,95,0.12,,,0.28,0,weatherlink.com 1.10,2013-10-16 01:02:00,
2013-10-15 20:18:00,67.1,66.0,29.98,ENE,73,2.0,7.0,95,0.11,,,0.29,0,weatherlink.com 1.10,2013-10-16 01:18:00,
2013-10-15 20:32:00,67.1,66.0,29.98,SSE,164,1.0,4.0,95,0.08,,,0.29,0,weatherlink.com 1.10,2013-10-16 01:32:00,
2013-10-15 20:47:00,67.0,66.0,29.98,SSE,164,1.0,4.0,95,0.06,,,0.30,0,weatherlink.com 1.10,2013-10-16 01:47:00,
2013-10-15 21:03:00,67.1,66.0,29.98,SSE,159,0.0,4.0,96,0.02,,,0.30,0,weatherlink.com 1.10,2013-10-16 02:03:00,
2013-10-15 21:18:00,67.1,66.0,29.98,SSE,159,1.0,5.0,96,0.01,,,0.30,0,weatherlink.com 1.10,2013-10-16 02:18:00,
2013-10-15 21:33:00,67.0,66.0,29.99,South,178,3.0,5.0,96,0.01,,,0.30,0,weatherlink.com 1.10,2013-10-16 02:33:00,
2013-10-15 21:48:00,67.1,66.0,29.99,SSE,158,2.0,6.0,96,0.00,,,0.30,0,weatherlink.com 1.10,2013-10-16 02:48:00,
2013-10-15 22:03:00,67.0,66.0,29.99,South,176,0.0,2.0,96,0.00,,,0.30,0,weatherlink.com 1.10,2013-10-16 03:03:00,
2013-10-15 22:18:00,67.0,66.0,29.98,South,176,2.0,3.0,95,0.00,,,0.30,0,weatherlink.com 1.10,2013-10-16 03:18:00,
2013-10-15 22:33:00,67.0,66.0,29.98,South,176,2.0,4.0,96,0.00,,,0.30,0,weatherlink.com 1.10,2013-10-16 03:33:00,
2013-10-15 22:48:00,66.9,66.0,29.98,South,176,0.0,2.0,95,0.00,,,0.30,0,weatherlink.com 1.10,2013-10-16 03:48:00,
2013-10-15 23:03:00,66.8,66.0,29.97,South,176,0.0,2.0,96,0.00,,,0.30,0,weatherlink.com 1.10,2013-10-16 04:03:00,
2013-10-15 23:18:00,66.7,66.0,29.96,South,176,0.0,2.0,96,0.00,,,0.30,0,weatherlink.com 1.10,2013-10-16 04:18:00,
2013-10-15 23:33:00,66.6,66.0,29.96,South,176,0.0,3.0,96,0.00,,,0.30,0,weatherlink.com 1.10,2013-10-16 04:33:00,
2013-10-15 23:48:00,66.7,66.0,29.95,South,176,1.0,5.0,96,0.00,,,0.30,0,weatherlink.com 1.10,2013-10-16 04:48:00,